RÉSULTATS    Sur les Traces du Loup - Édition du 24/06/2017


Vous pouvez changer la distance ici.

Vous pouvez changer la distance ici.

Classement PDF Général Classement PDF Alphabétique /results/<span class='glyphicon glyphicon-picture'></span> Classement Temps Réel - Temps Puce

954 participants - 595 Hommes - 359 Femmes
345 licenciés (36%) - 609 non-licenciés (64%)

Temps moyen : 01:58:09


    Page / 39



Pos. Temps Nom - Prénom Club Dossard Catégorie km/h Temps Reel
14 01:16:11 PARME Enzo 1267 CAM (1 / 2) 13.4 01:16:02
217 01:39:05 VOUILLON Antoine ASCO 2032 CAM (2 / 2) 10.3 01:38:51
239 01:40:50 BEUNARDEAU Marine 1005 ESF (1 / 4) 10.1 01:40:44
792 02:23:05 CAMP Juliette AS CHAINGY SPORT NATURE 1903 ESF (2 / 4) 7.1 02:22:03
808 02:23:23 MOINE PICARD Gaelle 1411 ESF (3 / 4) 7.1 02:23:07
902 02:37:08 DEWILDE Jennifer 1650 ESF (4 / 4) 6.5 02:36:09
1 01:07:06 TREHOUT Nicolas EVMA 1629 ESM (1 / 10) 15.2 01:07:04
741 02:18:27 VACA Jordan 2016 ESM (10 / 10) 7.4 02:17:25
36 01:21:27 JEUFFRAULT Celeste 1644 ESM (2 / 10) 12.5 01:21:26
48 01:23:12 POLLY Gatien 1975 ESM (3 / 10) 12.2 01:23:07
136 01:32:34 GOUSSEAU Clement 1875 ESM (4 / 10) 11.1 01:31:44
150 01:33:23 CASTANEDO Quentin ETAMPES ATHLETISME 1783 ESM (5 / 10) 11.0 01:32:35
243 01:40:54 THIBAULT Pierre alexandre SEALED AIR 1314 ESM (6 / 10) 10.1 01:40:34
262 01:41:54 BASTIEN Cheneau NON LICENCIE 1733 ESM (7 / 10) 10.0 01:41:44
596 02:04:21 BENOIT Aurelien 1816 ESM (8 / 10) 8.2 02:03:17
648 02:08:31 GALLIAU Sylvain 1747 ESM (9 / 10) 7.9 02:08:06
46 01:23:05 PELLE Julien AZE FC 2028 JUM (1 / 4) 12.2 01:23:01
280 01:43:33 CLEMENT Simon 1726 JUM (2 / 4) 9.8 01:43:25
489 01:56:28 BARRE Tanguy 1265 JUM (3 / 4) 8.8 01:55:53
592 02:03:42 RASE Owen 1065 JUM (4 / 4) 8.3 02:02:30
75 01:26:29 PRUD HOMME Berengere JOGG IN TOURS 1437 SEF (1 / 95) 11.8 01:26:25
232 01:40:32 BOUCHER Sandrine OCCBA 1628 SEF (10 / 95) 10.2 01:39:52
251 01:41:06 BASSI Tessa 1507 SEF (11 / 95) 10.1 01:40:51
253 01:41:09 BORGHESE Clio 1496 SEF (12 / 95) 10.1 01:40:54
272 01:42:38 BELY Frederique 1234 SEF (13 / 95) 9.9 01:42:25
    Page / 39 Dernière